CheckWX is a tool to help pilots better visualize weather data.  It is not intended as a substitute for an official pre-flight weather briefing.

06:34:24 UTC

KHNB METAR
Huntingburg Airport
Huntingburg, Indiana, USA
Current

38 mins ago

KHNB 140556Z AUTO 18004KT 10SM CLR M02/M06 A3019 RMK AO2 SLP229 T10221061 11006 21039 50005 FZRANO
Observed
Nov-14 @ 05:56 UTC
Wind
  • 180° at 4 KTS
Visibility
10 SM
Flight Rules
VFR
Cloud Levels
  • Clear skies
Temperature
-2°C / 28°F
Dewpoint
-6°C / 21°F
Humidity
74%
Altimeter
30.19" Hg
Pressure
1022.32 hPa
Previous

2 hours ago

KHNB 140456Z AUTO 19005KT 10SM CLR M02/M07 A3019 RMK AO2 SLP229 T10221067 FZRANO
Observed
Nov-14 @ 04:56 UTC
Wind
  • 190° at 5 KTS
Visibility
10 SM
Flight Rules
VFR
Cloud Levels
  • Clear skies
Temperature
-2°C / 28°F
Dewpoint
-7°C / 19°F
Humidity
69%
Altimeter
30.19" Hg
Pressure
1022.32 hPa
Previous

3 hours ago

KHNB 140356Z AUTO 15005KT 10SM CLR M02/M07 A3018 RMK AO2 SLP224 T10171067 400171144 FZRANO
Observed
Nov-14 @ 03:56 UTC
Wind
  • 150° at 5 KTS
Visibility
10 SM
Flight Rules
VFR
Cloud Levels
  • Clear skies
Temperature
-2°C / 28°F
Dewpoint
-7°C / 19°F
Humidity
69%
Altimeter
30.18" Hg
Pressure
1022.02 hPa